首页
METAR-TAF:

METAR-TAF

机场 :

福州长乐国际机场

福州, 中华人民共和国

纬度: 26-05N, 经度: 119-17E, 海拔: 85米

当前天气观测

该预报发布于59分钟前的01:00 UTC
风速8节,风向南转西南
温度 29°C
湿度 70%
气压 1007 hPa
能見度: 9000
少量云层高于5000英尺

METAR: ZSFZ 260100Z 21004MPS 9000 FEW050 29/23 Q1007 NOSIG

时间: 09:59 (01:59 UTC)

预报

该预报发布于6小时和50分钟前的19:09 UTC
预报有效从26日的 00点(UTC)到 26日的 24点(UTC)
风速8节,风向
能見度: 5000
散云层高于3000英尺
轻雾

TAF: ZSFZ 251909Z 2600/2624 19004MPS 5000 BR SCT030 TX32/2606Z TN24/2621Z

超过4000个机场的气象观测和天气预报(METAR&TAF报告)。

可查询的气象台以黄色和红色小点在地图上表示。

将鼠标移到小点上方,可查看气象台名称。

然后点击查看天气观测和预报。

如需切换地图:点击带黑十字的绿色按钮放大地图;点击带横线的绿色按钮缩小地图;或者点击绿色箭头查看邻近地区的地图。


METAR-TAF: